createdAt,value
2019-04-06T00:00:47.085Z,97.50
2019-04-06T00:05:10.125Z,97.60
2019-04-06T00:09:27.272Z,97.20
2019-04-06T00:13:45.409Z,97.10
2019-04-06T00:18:03.151Z,97.10
2019-04-06T00:22:19.880Z,97.50
2019-04-06T00:26:36.871Z,97.40
2019-04-06T00:30:55.298Z,97.50
2019-04-06T00:35:12.197Z,97.60
2019-04-06T00:39:28.798Z,97.60
2019-04-06T00:43:50.107Z,97.50
2019-04-06T00:48:06.864Z,97.60
2019-04-06T00:52:23.447Z,97.90
2019-04-06T00:56:39.945Z,98.30
2019-04-06T01:00:56.536Z,98.60
2019-04-06T01:05:13.354Z,98.90
2019-04-06T01:09:29.986Z,99.10
2019-04-06T01:13:46.539Z,99.20
2019-04-06T01:18:03.135Z,99.50
2019-04-06T01:22:19.725Z,99.40
2019-04-06T01:26:36.333Z,99.50
2019-04-06T01:30:52.970Z,99.80
2019-04-06T01:35:09.658Z,99.90
2019-04-06T01:39:26.133Z,99.90
2019-04-06T01:43:43.026Z,99.90
2019-04-06T01:48:00.160Z,99.90
2019-04-06T01:52:16.646Z,99.90
2019-04-06T01:56:33.134Z,99.90
2019-04-06T02:00:54.532Z,99.90
2019-04-06T02:05:11.296Z,99.90
2019-04-06T02:09:27.957Z,99.90
2019-04-06T02:13:44.443Z,99.90
2019-04-06T02:18:01.030Z,99.90
2019-04-06T02:22:17.602Z,99.90
2019-04-06T02:26:34.071Z,99.90
2019-04-06T02:30:59.843Z,99.90
2019-04-06T02:35:26.869Z,99.90
2019-04-06T02:39:54.103Z,99.90
2019-04-06T02:44:10.625Z,99.90
2019-04-06T02:48:27.173Z,99.90
2019-04-06T02:52:43.773Z,99.90
2019-04-06T02:57:00.248Z,99.90
2019-04-06T03:01:17.288Z,99.90
2019-04-06T03:05:34.347Z,99.90
2019-04-06T03:09:51.518Z,99.90
2019-04-06T03:14:08.200Z,99.90
2019-04-06T03:18:24.763Z,99.90
2019-04-06T03:22:41.248Z,99.90
2019-04-06T03:27:02.278Z,99.90
2019-04-06T03:31:16.393Z,99.80
2019-04-06T03:35:33.027Z,99.50
2019-04-06T03:39:49.556Z,99.30
2019-04-06T03:44:06.239Z,99.60
2019-04-06T03:48:22.748Z,99.70
2019-04-06T03:52:39.250Z,99.60
2019-04-06T03:56:55.978Z,99.60
2019-04-06T04:01:12.532Z,99.70
2019-04-06T04:05:28.979Z,99.90
2019-04-06T04:09:45.919Z,99.90
2019-04-06T04:14:02.817Z,99.90
2019-04-06T04:18:19.613Z,99.90
2019-04-06T04:22:36.522Z,99.90
2019-04-06T04:26:53.140Z,99.70
2019-04-06T04:31:09.754Z,99.70
2019-04-06T04:35:26.612Z,99.70
2019-04-06T04:39:43.172Z,99.90
2019-04-06T04:43:59.732Z,99.90
2019-04-06T04:48:16.312Z,99.90
2019-04-06T04:52:33.111Z,99.90
2019-04-06T04:56:49.716Z,99.90
2019-04-06T05:01:06.532Z,99.80
2019-04-06T05:05:25.826Z,99.70
2019-04-06T05:09:42.327Z,99.70
2019-04-06T05:14:55.206Z,99.80
2019-04-06T05:19:11.836Z,99.80
2019-04-06T05:23:28.325Z,99.90
2019-04-06T05:27:52.060Z,99.90
2019-04-06T05:32:03.571Z,99.90
2019-04-06T05:36:20.114Z,99.90
2019-04-06T05:40:36.747Z,99.90
2019-04-06T05:44:53.254Z,99.90
2019-04-06T05:49:09.738Z,99.90
2019-04-06T05:53:26.408Z,99.90
2019-04-06T05:57:43.124Z,99.70
2019-04-06T06:01:59.625Z,99.60
2019-04-06T06:06:16.244Z,99.50
2019-04-06T06:10:34.159Z,99.10
2019-04-06T06:14:50.897Z,99.00
2019-04-06T06:19:07.430Z,98.70
2019-04-06T06:23:24.552Z,98.90
2019-04-06T06:27:41.351Z,98.40
2019-04-06T06:31:58.394Z,97.70
2019-04-06T06:36:15.021Z,97.50
2019-04-06T06:40:31.530Z,97.20
2019-04-06T06:44:48.058Z,97.50
2019-04-06T06:49:04.595Z,96.90
2019-04-06T06:53:21.114Z,97.30
2019-04-06T06:57:37.732Z,97.20
2019-04-06T07:01:54.332Z,96.60
2019-04-06T07:06:11.198Z,96.70
2019-04-06T07:10:27.766Z,96.70
2019-04-06T07:14:45.586Z,96.30
2019-04-06T07:19:02.197Z,96.20
2019-04-06T07:23:32.446Z,95.80
2019-04-06T07:27:49.221Z,95.60
2019-04-06T07:32:05.700Z,95.40
2019-04-06T07:36:22.325Z,95.00
2019-04-06T07:40:38.799Z,95.00
2019-04-06T07:44:55.723Z,94.30
2019-04-06T07:49:12.244Z,93.60
2019-04-06T07:53:28.892Z,93.00
2019-04-06T07:57:45.425Z,91.90
2019-04-06T08:02:02.146Z,90.20
2019-04-06T08:06:18.765Z,87.70
2019-04-06T08:10:35.241Z,85.30
2019-04-06T08:14:51.900Z,85.30
2019-04-06T08:19:08.797Z,84.80
2019-04-06T08:23:25.325Z,81.00
2019-04-06T08:27:42.409Z,82.30
2019-04-06T08:31:59.086Z,81.80
2019-04-06T08:36:15.810Z,81.30
2019-04-06T08:40:32.424Z,78.20
2019-04-06T08:44:49.112Z,78.30
2019-04-06T08:49:05.759Z,77.20
2019-04-06T08:53:22.288Z,75.60
2019-04-06T08:57:39.083Z,72.70
2019-04-06T09:01:55.633Z,69.40
2019-04-06T09:06:12.224Z,68.10
2019-04-06T09:10:28.744Z,67.40
2019-04-06T09:14:45.340Z,67.10
2019-04-06T09:19:01.850Z,66.60
2019-04-06T09:23:18.488Z,65.90
2019-04-06T09:27:35.602Z,64.70
2019-04-06T09:31:52.236Z,64.30
2019-04-06T09:36:08.886Z,64.30
2019-04-06T09:40:27.678Z,63.70
2019-04-06T09:44:58.276Z,63.70
2019-04-06T09:49:25.868Z,62.00
2019-04-06T09:53:47.414Z,60.50
2019-04-06T09:58:22.411Z,61.40
2019-04-06T10:02:56.639Z,61.80
2019-04-06T10:07:32.235Z,60.40
2019-04-06T10:11:58.069Z,59.60
2019-04-06T10:16:33.207Z,59.50
2019-04-06T10:21:08.482Z,58.40
2019-04-06T10:25:44.048Z,57.80
2019-04-06T10:30:19.447Z,57.80
2019-04-06T10:34:51.028Z,58.10
2019-04-06T10:39:26.171Z,55.20
2019-04-06T10:43:45.627Z,55.10
2019-04-06T10:48:22.463Z,56.30
2019-04-06T10:52:57.783Z,56.00
2019-04-06T10:57:14.408Z,55.00
2019-04-06T11:01:41.436Z,54.50
2019-04-06T11:06:00.238Z,54.90
2019-04-06T11:10:17.021Z,54.70
2019-04-06T11:14:38.752Z,53.70
2019-04-06T11:19:13.863Z,52.70
2019-04-06T11:23:33.370Z,52.00
2019-04-06T11:27:51.947Z,52.70
2019-04-06T11:32:10.375Z,53.00
2019-04-06T11:36:46.980Z,51.70
2019-04-06T11:41:09.959Z,49.40
2019-04-06T11:45:28.497Z,49.20
2019-04-06T11:49:59.482Z,48.60
2019-04-06T11:54:27.890Z,48.80
2019-04-06T11:58:48.915Z,48.50
2019-04-06T12:03:05.686Z,48.70
2019-04-06T12:07:37.341Z,48.80
2019-04-06T12:12:01.781Z,47.30
2019-04-06T12:16:33.682Z,45.00
2019-04-06T12:20:58.154Z,45.90
2019-04-06T12:25:25.965Z,47.00
2019-04-06T12:30:01.123Z,44.40
2019-04-06T12:34:19.795Z,43.90
2019-04-06T12:38:38.305Z,44.50
2019-04-06T12:42:54.897Z,44.00
2019-04-06T12:47:31.748Z,40.80
2019-04-06T12:51:50.215Z,40.20
2019-04-06T12:56:08.679Z,36.30
2019-04-06T13:00:31.258Z,36.40
2019-04-06T13:04:47.725Z,34.90
2019-04-06T13:09:24.719Z,34.00
2019-04-06T13:13:55.643Z,33.80
2019-04-06T13:18:28.153Z,32.30
2019-04-06T13:22:56.520Z,32.30
2019-04-06T13:27:32.636Z,31.90
2019-04-06T13:32:04.648Z,35.80
2019-04-06T13:36:21.211Z,41.10
2019-04-06T13:40:41.563Z,46.20
2019-04-06T13:45:03.797Z,49.30
2019-04-06T13:49:25.179Z,51.50
2019-04-06T13:53:47.604Z,47.10
2019-04-06T13:58:14.974Z,42.60
2019-04-06T14:02:31.890Z,39.00
2019-04-06T14:06:53.615Z,37.50
2019-04-06T14:11:12.065Z,34.10
2019-04-06T14:15:37.584Z,36.20
2019-04-06T14:20:10.763Z,40.90
2019-04-06T14:24:44.435Z,43.70
2019-04-06T14:29:01.934Z,45.00
2019-04-06T14:33:32.962Z,44.50
2019-04-06T14:37:54.124Z,44.50
2019-04-06T14:42:12.758Z,43.60
2019-04-06T14:46:41.931Z,42.20
2019-04-06T14:51:04.766Z,42.00
2019-04-06T14:55:32.415Z,41.00
2019-04-06T14:59:52.064Z,41.90
2019-04-06T15:04:16.697Z,41.50
2019-04-06T15:08:42.349Z,42.40
2019-04-06T15:13:11.018Z,43.50
2019-04-06T15:17:31.058Z,43.10
2019-04-06T15:21:48.048Z,41.90
2019-04-06T15:26:13.342Z,39.90
2019-04-06T15:30:34.774Z,40.30
2019-04-06T15:34:55.343Z,38.50
2019-04-06T15:39:31.077Z,39.90
2019-04-06T15:44:06.085Z,40.90
2019-04-06T15:48:37.015Z,41.60
2019-04-06T15:52:50.422Z,42.80
2019-04-06T15:57:09.263Z,47.40
2019-04-06T16:01:43.411Z,47.30
2019-04-06T16:06:04.981Z,46.60
2019-04-06T16:10:39.405Z,46.00
2019-04-06T16:14:55.959Z,46.90
2019-04-06T16:19:14.404Z,47.60
2019-04-06T16:23:35.890Z,46.70
2019-04-06T16:27:56.840Z,47.40
2019-04-06T16:32:34.265Z,47.70
2019-04-06T16:36:55.598Z,47.30
2019-04-06T16:41:14.185Z,49.50
2019-04-06T16:45:43.415Z,49.40
2019-04-06T16:50:02.223Z,50.80
2019-04-06T16:54:30.381Z,51.00
2019-04-06T16:58:49.235Z,51.60
2019-04-06T17:03:06.723Z,52.30
2019-04-06T17:07:31.567Z,52.00
2019-04-06T17:12:06.547Z,53.80
2019-04-06T17:16:38.649Z,54.60
2019-04-06T17:20:58.901Z,56.40
2019-04-06T17:25:27.773Z,56.40
2019-04-06T17:29:55.572Z,58.10
2019-04-06T17:34:15.451Z,58.40
2019-04-06T17:38:38.417Z,59.10
2019-04-06T17:43:22.559Z,59.70
2019-04-06T17:47:42.871Z,60.20
2019-04-06T17:52:07.506Z,62.30
2019-04-06T17:56:24.382Z,64.50
2019-04-06T18:00:56.252Z,65.80
2019-04-06T18:05:12.988Z,67.20
2019-04-06T18:09:34.475Z,69.20
2019-04-06T18:13:52.545Z,70.70
2019-04-06T18:18:09.832Z,72.80
2019-04-06T18:22:26.710Z,74.20
2019-04-06T18:26:43.342Z,74.60
2019-04-06T18:31:20.248Z,75.30
2019-04-06T18:35:37.222Z,75.80
2019-04-06T18:39:55.796Z,75.60
2019-04-06T18:44:12.348Z,74.20
2019-04-06T18:48:29.278Z,74.40
2019-04-06T18:52:46.468Z,72.40
2019-04-06T18:57:03.517Z,69.90
2019-04-06T19:01:20.363Z,68.70
2019-04-06T19:05:37.098Z,67.50
2019-04-06T19:09:53.793Z,66.90
2019-04-06T19:14:11.125Z,67.90
2019-04-06T19:18:27.731Z,68.70
2019-04-06T19:22:46.796Z,69.80
2019-04-06T19:27:05.643Z,70.60
2019-04-06T19:31:23.702Z,71.70
2019-04-06T19:35:40.794Z,73.60
2019-04-06T19:39:58.085Z,74.90
2019-04-06T19:44:16.141Z,76.60
2019-04-06T19:48:32.652Z,77.10
2019-04-06T19:52:49.544Z,78.40
2019-04-06T19:57:06.215Z,78.80
2019-04-06T20:01:22.851Z,78.50
2019-04-06T20:05:40.141Z,78.60
2019-04-06T20:09:57.959Z,79.00
2019-04-06T20:14:14.913Z,80.00
2019-04-06T20:18:31.574Z,81.20
2019-04-06T20:22:48.150Z,82.40
2019-04-06T20:27:04.889Z,83.30
2019-04-06T20:31:21.430Z,84.20
2019-04-06T20:35:38.348Z,84.90
2019-04-06T20:39:55.769Z,85.40
2019-04-06T20:44:12.384Z,86.10
2019-04-06T20:48:29.380Z,86.10
2019-04-06T20:52:46.066Z,87.00
2019-04-06T20:57:03.305Z,87.60
2019-04-06T21:01:19.868Z,88.60
2019-04-06T21:05:36.388Z,88.50
2019-04-06T21:09:52.991Z,89.30
2019-04-06T21:14:10.031Z,89.30
2019-04-06T21:18:26.610Z,90.10
2019-04-06T21:22:43.680Z,89.90
2019-04-06T21:27:00.299Z,90.00
2019-04-06T21:31:16.740Z,90.20
2019-04-06T21:35:33.565Z,90.40
2019-04-06T21:39:50.121Z,90.40
2019-04-06T21:44:06.624Z,90.20
2019-04-06T21:48:23.175Z,90.00
2019-04-06T21:52:39.612Z,90.10
2019-04-06T21:56:56.047Z,90.30
2019-04-06T22:01:15.809Z,90.50
2019-04-06T22:05:32.952Z,90.60
2019-04-06T22:09:50.411Z,90.80
2019-04-06T22:14:07.041Z,90.90
2019-04-06T22:18:23.574Z,90.80
2019-04-06T22:22:40.453Z,91.00
2019-04-06T22:26:57.441Z,91.20
2019-04-06T22:31:14.247Z,91.30
2019-04-06T22:35:31.243Z,91.40
2019-04-06T22:39:47.997Z,91.70
2019-04-06T22:44:05.661Z,91.70
2019-04-06T22:48:25.346Z,91.80
2019-04-06T22:52:42.337Z,91.70
2019-04-06T22:56:59.118Z,92.00
2019-04-06T23:01:17.565Z,92.30
2019-04-06T23:05:34.012Z,92.50
2019-04-06T23:09:50.569Z,92.80
2019-04-06T23:14:07.416Z,92.90
2019-04-06T23:18:24.027Z,92.50
2019-04-06T23:22:40.911Z,92.30
2019-04-06T23:26:57.850Z,92.10
2019-04-06T23:31:14.828Z,92.20
2019-04-06T23:35:31.817Z,92.30
2019-04-06T23:39:48.291Z,92.40
2019-04-06T23:44:04.934Z,92.50
2019-04-06T23:48:21.946Z,92.60
2019-04-06T23:52:38.402Z,92.90
2019-04-06T23:56:54.877Z,93.00
